Airfield :
LOGIN :

Register | Disclaimer

   EN    FR    IT 

 










Legend :    VFR   Marginal VFR   IFR   Intensive IFR   Very Intensive IFR
Visi :
Ceiling :
>= 8 km
>= 3000ft
5 to 8 km
1000 to 3000 ft
1500m to 5 km
500 to 1000 ft
800 to 1500m
200 to 500 ft
< 800m
< 200 ft
Symbols :   Thunderstorms  Fog  Heavy snow  Heavy precipitations  Wind > 20 kt
SIGMETs :     Misc.  Thunderstorms  Icing  Turbulence  Mountain Waves  Volcanic Ashes






- Airport Elevation : 297 ft


EGVP - Middle Wallop

CURRENT METAR :
  • 122024Z 22009KT 9999 BKN031 08/06 Q0977 BECMG 7000 RA BKN010 RMK BLU BECMG GRN

EXPIRED METARs :
  • 121950Z 23009KT 9999 FEW015 BKN035 08/06 Q0978 BECMG 7000 -RA SCT020 RMK BLU BECMG WHT
  • 121923Z 24006KT 9999 BKN042 08/06 Q0978 NOSIG RMK BLU BLU
  • 121850Z 24011KT 9999 FEW018 BKN033 08/07 Q0979 NOSIG RMK BLU BLU
  • 121824Z 25010KT 9999 BKN035 08/06 Q0979 NOSIG RMK BLU BLU

TAF TAF EGVP
Valid from the 12 at 18:00 until the 12 at 23:00 UTC


121651Z 1218/1223 24010KT 9999 SCT025
TEMPO 1218/1220 SCT010
TEMPO 1220/1223 5000 SHRA SCT010
PROB40
TEMPO 1220/1223 4000 +SHRA
TEMPO 1222/1223 27017G27KT
ATIS : +44 1980 674 142



MET'MAP, your aeronautical weather chart ! - Copyright ORBIFLY December 2007 - Disclaimer

ORBIFLY MET'MAP TEAM :

Programming & Development : Alexandra Zaïnal
Concept & original design : Baudouin d'Aumeries
Assistance for programming : Marc-Olivier Méhu
Technical & hardware support : Manuel Goepfert

Contact : metmap@orbifly.com




SOURCES & CREDITS :

   NOAA